createdAt,value
2023-02-02T00:01:15.370Z,10.38
2023-02-02T00:03:43.119Z,9.00
2023-02-02T00:06:11.193Z,10.05
2023-02-02T00:08:39.455Z,7.93
2023-02-02T00:11:07.256Z,8.95
2023-02-02T00:13:34.807Z,8.80
2023-02-02T00:16:50.591Z,9.27
2023-02-02T00:19:28.452Z,8.65
2023-02-02T00:21:56.061Z,9.65
2023-02-02T00:24:23.684Z,8.73
2023-02-02T00:26:53.224Z,11.55
2023-02-02T00:29:22.516Z,8.10
2023-02-02T00:31:50.338Z,9.45
2023-02-02T00:34:18.015Z,10.23
2023-02-02T00:36:45.837Z,9.05
2023-02-02T00:39:16.134Z,11.43
2023-02-02T00:41:43.664Z,9.40
2023-02-02T00:44:29.746Z,8.50
2023-02-02T00:46:57.100Z,9.88
2023-02-02T00:49:24.568Z,8.93
2023-02-02T00:51:55.695Z,9.40
2023-02-02T00:54:23.286Z,10.23
2023-02-02T00:56:51.458Z,8.77
2023-02-02T00:59:18.871Z,10.68
2023-02-02T01:01:46.594Z,9.68
2023-02-02T01:04:14.519Z,9.68
2023-02-02T01:06:43.693Z,10.70
2023-02-02T01:09:11.274Z,10.13
2023-02-02T01:11:38.666Z,9.38
2023-02-02T01:14:06.510Z,9.63
2023-02-02T01:16:34.675Z,9.45
2023-02-02T01:19:02.841Z,10.25
2023-02-02T01:21:30.840Z,12.88
2023-02-02T01:23:58.262Z,11.05
2023-02-02T01:26:26.095Z,12.30
2023-02-02T01:28:54.703Z,10.15
2023-02-02T01:31:22.216Z,10.85
2023-02-02T01:33:50.007Z,9.25
2023-02-02T01:36:19.244Z,10.48
2023-02-02T01:38:47.103Z,9.93
2023-02-02T01:41:21.953Z,10.52
2023-02-02T01:43:58.038Z,9.88
2023-02-02T01:46:31.219Z,10.27
2023-02-02T01:49:01.795Z,12.35
2023-02-02T01:51:32.841Z,12.88
2023-02-02T01:54:00.681Z,13.23
2023-02-02T01:56:34.493Z,13.88
2023-02-02T01:59:02.537Z,13.85
2023-02-02T02:01:30.681Z,13.23
2023-02-02T02:03:58.446Z,14.48
2023-02-02T02:06:26.415Z,12.35
2023-02-02T02:08:57.556Z,12.40
2023-02-02T02:11:25.233Z,11.20
2023-02-02T02:14:12.927Z,10.13
2023-02-02T02:16:55.337Z,13.10
2023-02-02T02:19:58.221Z,9.85
2023-02-02T02:22:52.058Z,9.13
2023-02-02T02:26:35.515Z,12.00
2023-02-02T02:29:11.773Z,10.48
2023-02-02T02:32:04.025Z,9.93
2023-02-02T02:34:49.835Z,9.60
2023-02-02T02:37:40.671Z,11.13
2023-02-02T02:40:34.477Z,10.73
2023-02-02T02:43:18.312Z,10.32
2023-02-02T02:45:46.007Z,10.18
2023-02-02T02:48:13.955Z,8.80
2023-02-02T02:50:43.352Z,10.27
2023-02-02T02:53:21.770Z,10.00
2023-02-02T02:55:58.171Z,10.52
2023-02-02T02:58:45.843Z,9.23
2023-02-02T03:01:40.384Z,10.40
2023-02-02T03:04:27.664Z,9.07
2023-02-02T03:07:00.567Z,9.40
2023-02-02T03:09:34.896Z,10.30
2023-02-02T03:12:03.082Z,9.60
2023-02-02T03:14:35.355Z,11.52
2023-02-02T03:17:02.872Z,9.93
2023-02-02T03:19:30.712Z,9.88
2023-02-02T03:21:58.179Z,10.02
2023-02-02T03:24:25.840Z,11.27
2023-02-02T03:26:54.046Z,11.52
2023-02-02T03:29:21.763Z,10.60
2023-02-02T03:31:49.728Z,9.65
2023-02-02T03:34:17.334Z,9.93
2023-02-02T03:36:44.796Z,12.63
2023-02-02T03:39:16.468Z,10.02
2023-02-02T03:41:43.973Z,9.80
2023-02-02T03:44:11.722Z,10.88
2023-02-02T03:46:39.187Z,9.55
2023-02-02T03:49:06.753Z,9.68
2023-02-02T03:51:34.562Z,10.43
2023-02-02T03:54:01.911Z,11.23
2023-02-02T03:56:29.443Z,10.45
2023-02-02T03:58:56.994Z,10.80
2023-02-02T04:01:29.016Z,8.45
2023-02-02T04:03:59.971Z,8.57
2023-02-02T04:06:27.724Z,10.63
2023-02-02T04:08:55.568Z,11.18
2023-02-02T04:11:23.770Z,9.45
2023-02-02T04:13:51.544Z,11.43
2023-02-02T04:16:19.170Z,9.85
2023-02-02T04:18:46.604Z,9.35
2023-02-02T04:21:14.025Z,7.55
2023-02-02T04:23:41.567Z,8.60
2023-02-02T04:26:08.984Z,7.43
2023-02-02T04:28:37.523Z,8.48
2023-02-02T04:31:05.051Z,8.05
2023-02-02T04:33:34.234Z,8.32
2023-02-02T04:36:01.807Z,8.63
2023-02-02T04:38:31.522Z,8.10
2023-02-02T04:40:59.173Z,8.77
2023-02-02T04:43:52.848Z,8.98
2023-02-02T04:46:34.745Z,9.18
2023-02-02T04:49:02.338Z,9.30
2023-02-02T04:51:30.069Z,9.73
2023-02-02T04:53:57.608Z,10.85
2023-02-02T04:56:25.162Z,9.73
2023-02-02T04:58:54.129Z,9.55
2023-02-02T05:01:21.798Z,11.88
2023-02-02T05:03:55.310Z,12.25
2023-02-02T05:06:22.831Z,9.98
2023-02-02T05:08:52.033Z,13.43
2023-02-02T05:11:26.273Z,14.00
2023-02-02T05:14:03.182Z,13.35
2023-02-02T05:16:36.117Z,12.10
2023-02-02T05:19:04.526Z,13.38
2023-02-02T05:21:33.354Z,15.65
2023-02-02T05:24:03.875Z,12.20
2023-02-02T05:26:31.872Z,13.77
2023-02-02T05:29:00.196Z,10.85
2023-02-02T05:31:28.139Z,17.30
2023-02-02T05:36:43.926Z,11.80
2023-02-02T05:39:11.984Z,12.38
2023-02-02T05:42:03.099Z,13.02
2023-02-02T05:44:33.458Z,13.75
2023-02-02T05:47:01.047Z,12.50
2023-02-02T05:49:28.876Z,13.27
2023-02-02T05:51:59.837Z,14.25
2023-02-02T05:54:27.825Z,12.07
2023-02-02T05:56:56.255Z,12.02
2023-02-02T05:59:29.718Z,11.35
2023-02-02T06:02:03.030Z,11.27
2023-02-02T06:04:31.880Z,12.52
2023-02-02T06:06:59.712Z,11.13
2023-02-02T06:09:27.568Z,12.48
2023-02-02T06:11:55.380Z,14.90
2023-02-02T06:14:48.858Z,14.45
2023-02-02T06:17:16.685Z,14.40
2023-02-02T06:19:51.136Z,12.48
2023-02-02T06:22:21.851Z,12.80
2023-02-02T06:24:53.938Z,12.90
2023-02-02T06:27:21.974Z,12.27
2023-02-02T06:29:50.819Z,10.55
2023-02-02T06:32:33.862Z,10.68
2023-02-02T06:35:01.294Z,12.38
2023-02-02T06:37:31.090Z,12.25
2023-02-02T06:40:01.891Z,12.00
2023-02-02T06:42:30.775Z,12.30
2023-02-02T06:44:58.560Z,12.07
2023-02-02T06:47:26.950Z,12.32
2023-02-02T06:49:54.681Z,11.07
2023-02-02T06:52:22.386Z,12.77
2023-02-02T06:54:50.625Z,11.68
2023-02-02T06:57:19.021Z,11.73
2023-02-02T06:59:47.288Z,10.20
2023-02-02T07:02:14.678Z,13.43
2023-02-02T07:04:42.366Z,11.15
2023-02-02T07:07:09.822Z,12.77
2023-02-02T07:09:37.328Z,11.32
2023-02-02T07:12:04.912Z,11.63
2023-02-02T07:14:32.726Z,12.57
2023-02-02T07:17:00.381Z,12.45
2023-02-02T07:19:28.015Z,11.82
2023-02-02T07:21:55.804Z,12.45
2023-02-02T07:24:23.997Z,13.95
2023-02-02T07:26:51.488Z,14.07
2023-02-02T07:29:19.073Z,11.77
2023-02-02T07:31:46.916Z,11.50
2023-02-02T07:34:14.483Z,11.63
2023-02-02T07:36:42.560Z,10.93
2023-02-02T07:39:11.729Z,12.60
2023-02-02T07:41:39.196Z,10.45
2023-02-02T07:44:07.842Z,11.63
2023-02-02T07:46:36.167Z,11.77
2023-02-02T07:49:06.177Z,12.82
2023-02-02T07:51:44.301Z,10.77
2023-02-02T07:54:29.563Z,12.32
2023-02-02T07:56:57.967Z,11.45
2023-02-02T07:59:36.106Z,12.30
2023-02-02T08:02:04.065Z,12.43
2023-02-02T08:04:33.645Z,12.32
2023-02-02T08:07:01.576Z,13.35
2023-02-02T08:09:33.175Z,12.88
2023-02-02T08:12:02.446Z,14.00
2023-02-02T08:14:30.999Z,13.85
2023-02-02T08:17:08.089Z,12.75
2023-02-02T08:19:35.987Z,13.18
2023-02-02T08:22:03.381Z,11.65
2023-02-02T08:24:31.417Z,12.55
2023-02-02T08:27:00.094Z,13.48
2023-02-02T08:29:27.888Z,13.20
2023-02-02T08:31:56.514Z,13.02
2023-02-02T08:34:24.579Z,14.20
2023-02-02T08:36:52.084Z,14.43
2023-02-02T08:39:20.540Z,11.02
2023-02-02T08:41:48.275Z,13.25
2023-02-02T08:44:15.891Z,12.73
2023-02-02T08:46:43.528Z,10.85
2023-02-02T08:49:12.617Z,10.68
2023-02-02T08:51:40.195Z,13.60
2023-02-02T08:54:07.893Z,9.80
2023-02-02T08:56:35.616Z,10.50
2023-02-02T08:59:05.100Z,11.60
2023-02-02T09:01:33.381Z,9.73
2023-02-02T09:04:04.433Z,8.80
2023-02-02T09:06:34.074Z,9.82
2023-02-02T09:09:05.074Z,11.35
2023-02-02T09:11:36.075Z,9.80
2023-02-02T09:14:06.652Z,10.20
2023-02-02T09:16:35.000Z,9.65
2023-02-02T09:19:05.143Z,8.93
2023-02-02T09:21:37.536Z,10.23
2023-02-02T09:24:10.415Z,10.13
2023-02-02T09:26:40.988Z,8.32
2023-02-02T09:29:19.657Z,10.63
2023-02-02T09:31:55.465Z,8.38
2023-02-02T09:34:29.363Z,9.20
2023-02-02T09:36:57.264Z,8.45
2023-02-02T09:39:24.787Z,9.68
2023-02-02T09:42:33.600Z,10.40
2023-02-02T09:45:09.102Z,9.80
2023-02-02T09:47:43.918Z,12.80
2023-02-02T09:50:39.180Z,10.00
2023-02-02T09:53:54.736Z,9.80
2023-02-02T09:56:44.006Z,10.32
2023-02-02T09:59:26.105Z,9.10
2023-02-02T10:01:56.223Z,9.77
2023-02-02T10:04:27.880Z,9.03
2023-02-02T10:06:57.308Z,10.43
2023-02-02T10:09:33.725Z,9.18
2023-02-02T10:12:16.008Z,7.68
2023-02-02T10:14:54.299Z,9.18
2023-02-02T10:17:25.399Z,9.10
2023-02-02T10:19:55.442Z,11.85
2023-02-02T10:22:24.815Z,11.25
2023-02-02T10:24:52.053Z,8.75
2023-02-02T10:27:46.375Z,8.20
2023-02-02T10:30:18.432Z,9.65
2023-02-02T10:32:50.733Z,8.55
2023-02-02T10:35:26.946Z,7.82
2023-02-02T10:38:11.835Z,8.30
2023-02-02T10:40:51.196Z,8.40
2023-02-02T10:43:37.244Z,8.90
2023-02-02T10:46:04.616Z,8.25
2023-02-02T10:48:35.903Z,8.57
2023-02-02T10:51:22.223Z,10.30
2023-02-02T10:53:54.132Z,7.88
2023-02-02T10:56:46.090Z,9.43
2023-02-02T10:59:16.185Z,10.55
2023-02-02T11:01:43.483Z,10.50
2023-02-02T11:04:29.910Z,10.57
2023-02-02T11:06:57.758Z,9.52
2023-02-02T11:09:35.116Z,7.57
2023-02-02T11:12:13.904Z,7.40
2023-02-02T11:14:47.604Z,7.93
2023-02-02T11:17:22.732Z,6.57
2023-02-02T11:19:50.630Z,8.10
2023-02-02T11:22:35.147Z,6.97
2023-02-02T11:25:04.676Z,7.82
2023-02-02T11:27:39.955Z,6.90
2023-02-02T11:30:34.621Z,7.05
2023-02-02T11:33:34.920Z,7.05
2023-02-02T11:36:22.341Z,6.85
2023-02-02T11:38:49.602Z,5.40
2023-02-02T11:41:17.166Z,6.97
2023-02-02T11:43:52.469Z,7.78
2023-02-02T11:46:25.906Z,7.05
2023-02-02T11:49:03.511Z,6.72
2023-02-02T11:51:31.221Z,6.00
2023-02-02T11:54:06.292Z,6.85
2023-02-02T11:56:35.297Z,6.63
2023-02-02T11:59:04.148Z,6.93
2023-02-02T12:01:35.991Z,7.07
2023-02-02T12:04:24.698Z,6.53
2023-02-02T12:06:51.956Z,7.70
2023-02-02T12:09:23.949Z,7.40
2023-02-02T12:12:00.417Z,5.93
2023-02-02T12:14:55.228Z,5.18
2023-02-02T12:17:39.050Z,6.10
2023-02-02T12:20:25.275Z,6.20
2023-02-02T12:23:08.755Z,6.72
2023-02-02T12:25:51.050Z,5.20
2023-02-02T12:28:36.840Z,4.82
2023-02-02T12:31:26.551Z,5.35
2023-02-02T12:34:35.561Z,5.03
2023-02-02T12:37:30.959Z,5.63
2023-02-02T12:40:20.461Z,5.35
2023-02-02T12:43:00.532Z,5.03
2023-02-02T12:45:41.756Z,5.53
2023-02-02T12:48:27.293Z,4.68
2023-02-02T12:51:24.334Z,3.75
2023-02-02T12:54:34.866Z,4.53
2023-02-02T12:57:07.046Z,5.00
2023-02-02T12:59:46.395Z,6.38
2023-02-02T13:02:37.558Z,6.22
2023-02-02T13:05:23.532Z,3.25
2023-02-02T13:08:40.546Z,3.42
2023-02-02T13:11:29.923Z,3.80
2023-02-02T13:17:15.289Z,4.57
2023-02-02T13:19:45.605Z,6.78
2023-02-02T13:22:16.998Z,7.70
2023-02-02T13:24:45.872Z,6.38
2023-02-02T13:27:15.907Z,6.75
2023-02-02T13:29:54.389Z,6.05
2023-02-02T13:32:21.705Z,5.20
2023-02-02T13:34:55.064Z,5.22
2023-02-02T13:37:37.378Z,4.68
2023-02-02T13:40:27.063Z,4.50
2023-02-02T13:43:03.865Z,4.47
2023-02-02T13:46:00.739Z,5.65
2023-02-02T13:48:47.570Z,5.72
2023-02-02T13:51:18.388Z,5.85
2023-02-02T13:54:22.273Z,5.40
2023-02-02T13:56:49.467Z,5.55
2023-02-02T13:59:19.380Z,6.47
2023-02-02T14:01:49.131Z,5.90
2023-02-02T14:04:25.411Z,7.03
2023-02-02T14:09:35.609Z,6.82
2023-02-02T14:12:09.480Z,6.53
2023-02-02T14:14:38.972Z,7.10
2023-02-02T14:17:27.246Z,7.75
2023-02-02T14:19:56.440Z,7.63
2023-02-02T14:22:45.647Z,8.88
2023-02-02T14:25:33.931Z,9.57
2023-02-02T14:28:08.461Z,9.35
2023-02-02T14:30:38.531Z,8.70
2023-02-02T14:33:25.870Z,9.65
2023-02-02T14:35:55.970Z,8.77
2023-02-02T14:39:01.198Z,8.75
2023-02-02T14:41:55.955Z,7.55
2023-02-02T14:44:24.072Z,10.07
2023-02-02T14:46:51.356Z,10.13
2023-02-02T14:49:20.559Z,10.68
2023-02-02T14:51:53.422Z,9.85
2023-02-02T14:54:38.451Z,9.05
2023-02-02T14:57:20.195Z,8.32
2023-02-02T15:02:33.145Z,7.22
2023-02-02T15:05:30.832Z,7.47
2023-02-02T15:08:07.335Z,9.80
2023-02-02T15:10:56.737Z,9.07
2023-02-02T15:13:29.370Z,7.10
2023-02-02T15:16:07.574Z,8.20
2023-02-02T15:18:41.119Z,7.60
2023-02-02T15:21:08.374Z,6.90
2023-02-02T15:23:42.633Z,7.07
2023-02-02T15:26:15.931Z,7.70
2023-02-02T15:28:59.649Z,7.50
2023-02-02T15:31:28.488Z,7.60
2023-02-02T15:33:59.353Z,8.05
2023-02-02T15:36:34.097Z,8.98
2023-02-02T15:39:03.309Z,7.20
2023-02-02T15:41:37.757Z,8.57
2023-02-02T15:44:19.787Z,7.97
2023-02-02T15:46:47.252Z,8.10
2023-02-02T15:49:34.755Z,6.32
2023-02-02T15:52:25.332Z,7.22
2023-02-02T15:54:56.742Z,6.82
2023-02-02T16:00:16.689Z,6.63
2023-02-02T16:02:44.023Z,6.40
2023-02-02T16:05:36.029Z,5.60
2023-02-02T16:08:08.655Z,6.63
2023-02-02T16:10:35.883Z,5.50
2023-02-02T16:13:03.252Z,6.80
2023-02-02T16:15:31.971Z,6.90
2023-02-02T16:18:02.986Z,6.47
2023-02-02T16:20:33.887Z,8.45
2023-02-02T16:23:04.309Z,7.90
2023-02-02T16:25:33.828Z,8.70
2023-02-02T16:30:32.751Z,6.88
2023-02-02T16:33:00.472Z,7.32
2023-02-02T16:35:33.486Z,6.85
2023-02-02T16:38:24.114Z,8.60
2023-02-02T16:41:09.717Z,6.57
2023-02-02T16:43:41.213Z,7.43
2023-02-02T16:46:12.766Z,8.68
2023-02-02T16:48:42.246Z,7.68
2023-02-02T16:51:15.511Z,9.13
2023-02-02T16:54:06.286Z,7.80
2023-02-02T16:56:41.979Z,7.13
2023-02-02T16:59:20.254Z,7.57
2023-02-02T17:01:50.083Z,8.35
2023-02-02T17:04:28.359Z,9.50
2023-02-02T17:06:57.204Z,8.60
2023-02-02T17:09:33.095Z,8.60
2023-02-02T17:12:12.183Z,9.48
2023-02-02T17:14:59.911Z,8.70
2023-02-02T17:17:27.732Z,7.95
2023-02-02T17:19:55.180Z,8.88
2023-02-02T17:22:23.716Z,8.55
2023-02-02T17:24:51.727Z,7.28
2023-02-02T17:27:32.650Z,7.88
2023-02-02T17:30:01.451Z,6.45
2023-02-02T17:32:28.808Z,6.25
2023-02-02T17:34:56.977Z,7.55
2023-02-02T17:37:24.322Z,7.82
2023-02-02T17:39:51.752Z,8.40
2023-02-02T17:42:28.084Z,7.63
2023-02-02T17:44:55.316Z,8.60
2023-02-02T17:47:23.113Z,6.63
2023-02-02T17:49:50.352Z,7.05
2023-02-02T17:52:17.941Z,7.43
2023-02-02T17:54:45.164Z,7.95
2023-02-02T17:57:12.762Z,7.68
2023-02-02T17:59:40.058Z,7.03
2023-02-02T18:02:07.306Z,6.80
2023-02-02T18:04:34.531Z,8.05
2023-02-02T18:07:02.472Z,9.27
2023-02-02T18:09:34.008Z,7.45
2023-02-02T18:12:01.236Z,8.07
2023-02-02T18:14:29.074Z,8.23
2023-02-02T18:16:56.282Z,7.22
2023-02-02T18:19:23.576Z,8.05
2023-02-02T18:21:51.535Z,8.15
2023-02-02T18:24:19.127Z,8.13
2023-02-02T18:26:46.591Z,8.43
2023-02-02T18:29:14.034Z,8.43
2023-02-02T18:31:43.891Z,8.48
2023-02-02T18:34:11.342Z,8.32
2023-02-02T18:36:40.397Z,7.18
2023-02-02T18:39:07.663Z,8.00
2023-02-02T18:41:37.094Z,7.60
2023-02-02T18:44:04.398Z,7.03
2023-02-02T18:46:33.898Z,7.90
2023-02-02T18:49:01.180Z,8.02
2023-02-02T18:51:28.799Z,8.13
2023-02-02T18:54:00.286Z,8.27
2023-02-02T18:58:55.275Z,7.35
2023-02-02T19:01:26.227Z,7.13
2023-02-02T19:06:40.477Z,6.88
2023-02-02T19:09:07.824Z,8.80
2023-02-02T19:11:40.367Z,7.80
2023-02-02T19:14:31.598Z,8.70
2023-02-02T19:17:08.814Z,9.27
2023-02-02T19:19:36.352Z,8.07
2023-02-02T19:22:15.173Z,8.65
2023-02-02T19:24:42.394Z,7.78
2023-02-02T19:27:19.052Z,8.23
2023-02-02T19:29:47.293Z,8.68
2023-02-02T19:32:15.970Z,6.95
2023-02-02T19:34:43.443Z,8.60
2023-02-02T19:37:19.909Z,6.60
2023-02-02T19:39:47.320Z,8.23
2023-02-02T19:42:14.569Z,7.72
2023-02-02T19:44:42.499Z,7.78
2023-02-02T19:47:28.398Z,7.15
2023-02-02T19:49:55.633Z,6.97
2023-02-02T19:52:24.495Z,8.40
2023-02-02T19:54:52.445Z,6.88
2023-02-02T19:57:23.695Z,7.40
2023-02-02T19:59:51.340Z,7.43
2023-02-02T20:02:24.563Z,6.88
2023-02-02T20:04:59.016Z,6.97
2023-02-02T20:07:26.313Z,6.88
2023-02-02T20:09:53.636Z,7.80
2023-02-02T20:12:28.769Z,7.07
2023-02-02T20:14:57.261Z,6.57
2023-02-02T20:17:31.915Z,6.63
2023-02-02T20:19:59.395Z,5.53
2023-02-02T20:22:30.412Z,7.80
2023-02-02T20:24:57.871Z,6.38
2023-02-02T20:27:26.396Z,7.22
2023-02-02T20:29:54.582Z,6.65
2023-02-02T20:32:26.616Z,8.13
2023-02-02T20:34:54.753Z,8.52
2023-02-02T20:37:29.630Z,7.38
2023-02-02T20:40:01.732Z,6.68
2023-02-02T20:42:29.252Z,6.35
2023-02-02T20:44:58.156Z,6.70
2023-02-02T20:47:25.559Z,6.35
2023-02-02T20:49:52.769Z,6.60
2023-02-02T20:52:24.038Z,7.15
2023-02-02T20:54:51.737Z,5.90
2023-02-02T20:57:19.786Z,5.78
2023-02-02T20:59:46.994Z,6.20
2023-02-02T21:02:19.086Z,6.05
2023-02-02T21:04:47.374Z,5.88
2023-02-02T21:07:16.993Z,5.47
2023-02-02T21:09:45.202Z,7.05
2023-02-02T21:12:12.492Z,6.30
2023-02-02T21:14:40.247Z,7.53
2023-02-02T21:17:14.720Z,6.68
2023-02-02T21:19:42.492Z,5.80
2023-02-02T21:22:10.538Z,6.22
2023-02-02T21:24:38.247Z,6.07
2023-02-02T21:27:05.510Z,5.57
2023-02-02T21:29:34.189Z,5.03
2023-02-02T21:32:02.883Z,6.50
2023-02-02T21:34:30.923Z,5.57
2023-02-02T21:36:58.749Z,5.15
2023-02-02T21:39:33.696Z,4.10
2023-02-02T21:42:15.750Z,4.20
2023-02-02T21:44:54.302Z,5.10
2023-02-02T21:47:33.648Z,4.70
2023-02-02T21:50:28.092Z,4.72
2023-02-02T21:53:21.426Z,5.03
2023-02-02T21:55:59.651Z,4.50
2023-02-02T21:58:35.944Z,5.45
2023-02-02T22:01:34.870Z,4.53
2023-02-02T22:04:02.373Z,5.07
2023-02-02T22:06:33.430Z,6.13
2023-02-02T22:09:13.188Z,4.70
2023-02-02T22:11:51.937Z,5.35
2023-02-02T22:14:27.229Z,6.03
2023-02-02T22:16:58.065Z,6.38
2023-02-02T22:19:35.651Z,4.93
2023-02-02T22:22:09.685Z,6.35
2023-02-02T22:24:37.737Z,4.55
2023-02-02T22:27:19.649Z,4.35
2023-02-02T22:29:47.180Z,4.22
2023-02-02T22:32:14.437Z,5.75
2023-02-02T22:34:41.826Z,8.93
2023-02-02T22:37:09.059Z,13.02
2023-02-02T22:39:38.664Z,15.35
2023-02-02T22:42:06.015Z,13.65
2023-02-02T22:44:33.364Z,6.60
2023-02-02T22:47:00.967Z,6.60
2023-02-02T22:49:28.412Z,7.32
2023-02-02T22:51:55.629Z,6.35
2023-02-02T22:54:22.868Z,6.00
2023-02-02T22:56:50.182Z,5.32
2023-02-02T22:59:17.843Z,4.82
2023-02-02T23:01:45.322Z,4.97
2023-02-02T23:04:12.989Z,4.93
2023-02-02T23:06:40.479Z,4.70
2023-02-02T23:09:11.536Z,3.90
2023-02-02T23:11:38.757Z,5.13
2023-02-02T23:14:05.997Z,4.35
2023-02-02T23:16:33.399Z,4.03
2023-02-02T23:19:01.344Z,4.53
2023-02-02T23:21:28.818Z,4.57
2023-02-02T23:23:56.283Z,4.18
2023-02-02T23:26:24.064Z,4.28
2023-02-02T23:28:52.358Z,4.45
2023-02-02T23:31:19.996Z,4.18
2023-02-02T23:33:49.545Z,3.42
2023-02-02T23:36:17.093Z,4.00
2023-02-02T23:38:44.315Z,4.28
2023-02-02T23:41:11.635Z,4.13
2023-02-02T23:43:38.956Z,4.30
2023-02-02T23:46:06.277Z,4.05
2023-02-02T23:48:33.620Z,3.65
2023-02-02T23:51:00.912Z,3.67
2023-02-02T23:53:28.236Z,4.38
2023-02-02T23:55:56.614Z,3.75
2023-02-02T23:58:24.103Z,4.22
